Arlington, North Carolina
Current Conditions -  °F | °C
As of 10:55 PM on Sunday 25 Jan 2015 (Local Time) from KUKF Reporting Station
Broken Clouds Broken Clouds  
Wind Chill: 42°   Ceiling: 11000
Heat Index: 45°   Visibility: 10mi
Dew Point: 32°   Wind: 5mph
Humidity: 61%   Direction: 200°SSW
Pressure: 29.78"   Gusts: NA
Location:  36.2274°N, 80.767°W
Report Text: KUKF 260355Z AUTO 20004KT 10SM SCT080 BKN110 07/00 A2978 RMK AO2
Loading
Personal Weather Stations






























Interactive Weather Map New forecast layout! Learn more

10-Day Weather Forecast

Advertisements
Track Severe Weather on mobile